sensor_id;sensor_type;location;lat;lon;timestamp;temperature;humidity
2893;DHT22;1456;51.840;12.184;2023-10-19T00:00:54;7.00;99.90
2893;DHT22;1456;51.840;12.184;2023-10-19T00:03:21;7.00;99.90
2893;DHT22;1456;51.840;12.184;2023-10-19T00:05:48;7.00;99.90
2893;DHT22;1456;51.840;12.184;2023-10-19T00:08:14;7.00;99.90
2893;DHT22;1456;51.840;12.184;2023-10-19T00:10:49;7.10;99.90
2893;DHT22;1456;51.840;12.184;2023-10-19T00:13:28;7.10;99.90
2893;DHT22;1456;51.840;12.184;2023-10-19T00:15:55;7.10;99.90
2893;DHT22;1456;51.840;12.184;2023-10-19T00:18:22;7.20;99.90
2893;DHT22;1456;51.840;12.184;2023-10-19T00:20:53;7.10;99.90
2893;DHT22;1456;51.840;12.184;2023-10-19T00:23:24;7.10;99.90
2893;DHT22;1456;51.840;12.184;2023-10-19T00:26:01;7.00;99.90
2893;DHT22;1456;51.840;12.184;2023-10-19T00:28:33;7.10;99.90
2893;DHT22;1456;51.840;12.184;2023-10-19T00:31:01;7.10;99.90
2893;DHT22;1456;51.840;12.184;2023-10-19T00:33:29;7.20;99.90
2893;DHT22;1456;51.840;12.184;2023-10-19T00:35:54;7.30;99.90
2893;DHT22;1456;51.840;12.184;2023-10-19T00:38:38;7.30;99.90
2893;DHT22;1456;51.840;12.184;2023-10-19T00:41:08;7.30;99.90
2893;DHT22;1456;51.840;12.184;2023-10-19T00:43:34;7.20;99.90
2893;DHT22;1456;51.840;12.184;2023-10-19T00:46:18;7.20;99.90
2893;DHT22;1456;51.840;12.184;2023-10-19T00:49:05;7.20;99.90
2893;DHT22;1456;51.840;12.184;2023-10-19T00:51:36;7.30;99.90
2893;DHT22;1456;51.840;12.184;2023-10-19T00:54:09;7.30;99.90
2893;DHT22;1456;51.840;12.184;2023-10-19T00:56:41;7.40;99.90
2893;DHT22;1456;51.840;12.184;2023-10-19T00:59:11;7.50;99.90
2893;DHT22;1456;51.840;12.184;2023-10-19T01:01:40;7.50;99.90
2893;DHT22;1456;51.840;12.184;2023-10-19T01:04:10;7.50;99.90
2893;DHT22;1456;51.840;12.184;2023-10-19T01:06:40;7.50;99.90
2893;DHT22;1456;51.840;12.184;2023-10-19T01:09:10;7.50;99.90
2893;DHT22;1456;51.840;12.184;2023-10-19T01:11:43;7.60;99.90
2893;DHT22;1456;51.840;12.184;2023-10-19T01:14:19;7.50;99.90
2893;DHT22;1456;51.840;12.184;2023-10-19T01:16:45;7.50;99.90
2893;DHT22;1456;51.840;12.184;2023-10-19T01:19:11;7.50;99.90
2893;DHT22;1456;51.840;12.184;2023-10-19T01:21:36;7.40;99.90
2893;DHT22;1456;51.840;12.184;2023-10-19T01:24:09;7.50;99.90
2893;DHT22;1456;51.840;12.184;2023-10-19T01:26:37;7.50;99.90
2893;DHT22;1456;51.840;12.184;2023-10-19T01:29:03;7.50;99.90
2893;DHT22;1456;51.840;12.184;2023-10-19T01:31:39;7.50;99.90
2893;DHT22;1456;51.840;12.184;2023-10-19T01:34:16;7.60;99.90
2893;DHT22;1456;51.840;12.184;2023-10-19T01:36:45;7.50;99.90
2893;DHT22;1456;51.840;12.184;2023-10-19T01:39:15;7.50;99.90
2893;DHT22;1456;51.840;12.184;2023-10-19T01:41:40;7.50;99.90
2893;DHT22;1456;51.840;12.184;2023-10-19T01:44:07;7.60;99.90
2893;DHT22;1456;51.840;12.184;2023-10-19T01:46:33;7.50;99.90
2893;DHT22;1456;51.840;12.184;2023-10-19T01:48:59;7.50;99.90
2893;DHT22;1456;51.840;12.184;2023-10-19T01:51:27;7.50;99.90
2893;DHT22;1456;51.840;12.184;2023-10-19T01:53:55;7.50;99.90
2893;DHT22;1456;51.840;12.184;2023-10-19T01:56:21;7.50;99.90
2893;DHT22;1456;51.840;12.184;2023-10-19T01:58:47;7.50;99.90
2893;DHT22;1456;51.840;12.184;2023-10-19T02:01:14;7.40;99.90
2893;DHT22;1456;51.840;12.184;2023-10-19T02:03:40;7.40;99.90
2893;DHT22;1456;51.840;12.184;2023-10-19T02:06:10;7.40;99.90
2893;DHT22;1456;51.840;12.184;2023-10-19T02:08:45;7.30;99.90
2893;DHT22;1456;51.840;12.184;2023-10-19T02:11:13;7.30;99.90
2893;DHT22;1456;51.840;12.184;2023-10-19T02:13:43;7.40;99.90
2893;DHT22;1456;51.840;12.184;2023-10-19T02:16:12;7.40;99.90
2893;DHT22;1456;51.840;12.184;2023-10-19T02:18:39;7.40;99.90
2893;DHT22;1456;51.840;12.184;2023-10-19T02:21:05;7.50;99.90
2893;DHT22;1456;51.840;12.184;2023-10-19T02:23:32;7.40;99.90
2893;DHT22;1456;51.840;12.184;2023-10-19T02:26:00;7.40;99.90
2893;DHT22;1456;51.840;12.184;2023-10-19T02:28:25;7.40;99.90
2893;DHT22;1456;51.840;12.184;2023-10-19T02:30:56;7.40;99.90
2893;DHT22;1456;51.840;12.184;2023-10-19T02:33:22;7.40;99.90
2893;DHT22;1456;51.840;12.184;2023-10-19T02:35:48;7.40;99.90
2893;DHT22;1456;51.840;12.184;2023-10-19T02:38:13;7.40;99.90
2893;DHT22;1456;51.840;12.184;2023-10-19T02:40:40;7.40;99.90
2893;DHT22;1456;51.840;12.184;2023-10-19T02:43:05;7.40;99.90
2893;DHT22;1456;51.840;12.184;2023-10-19T02:45:31;7.40;99.90
2893;DHT22;1456;51.840;12.184;2023-10-19T02:47:57;7.40;99.90
2893;DHT22;1456;51.840;12.184;2023-10-19T02:50:23;7.30;99.90
2893;DHT22;1456;51.840;12.184;2023-10-19T02:52:52;7.30;99.90
2893;DHT22;1456;51.840;12.184;2023-10-19T02:55:18;7.20;99.90
2893;DHT22;1456;51.840;12.184;2023-10-19T02:57:48;7.20;99.90
2893;DHT22;1456;51.840;12.184;2023-10-19T03:00:15;7.10;99.90
2893;DHT22;1456;51.840;12.184;2023-10-19T03:02:45;7.10;99.90
2893;DHT22;1456;51.840;12.184;2023-10-19T03:05:10;7.00;99.90
2893;DHT22;1456;51.840;12.184;2023-10-19T03:07:45;7.00;99.90
2893;DHT22;1456;51.840;12.184;2023-10-19T03:10:12;6.90;99.90
2893;DHT22;1456;51.840;12.184;2023-10-19T03:13:00;6.90;99.90
2893;DHT22;1456;51.840;12.184;2023-10-19T03:15:26;7.00;99.90
2893;DHT22;1456;51.840;12.184;2023-10-19T03:17:55;7.00;99.90
2893;DHT22;1456;51.840;12.184;2023-10-19T03:20:21;7.00;99.90
2893;DHT22;1456;51.840;12.184;2023-10-19T03:22:49;7.00;99.90
2893;DHT22;1456;51.840;12.184;2023-10-19T03:25:15;7.00;99.90
2893;DHT22;1456;51.840;12.184;2023-10-19T03:27:59;6.90;99.90
2893;DHT22;1456;51.840;12.184;2023-10-19T03:30:32;6.90;99.90
2893;DHT22;1456;51.840;12.184;2023-10-19T03:33:04;6.90;99.90
2893;DHT22;1456;51.840;12.184;2023-10-19T03:35:30;7.00;99.90
2893;DHT22;1456;51.840;12.184;2023-10-19T03:37:55;6.90;99.90
2893;DHT22;1456;51.840;12.184;2023-10-19T03:40:24;6.90;99.90
2893;DHT22;1456;51.840;12.184;2023-10-19T03:42:57;6.90;99.90
2893;DHT22;1456;51.840;12.184;2023-10-19T03:45:23;6.90;99.90
2893;DHT22;1456;51.840;12.184;2023-10-19T03:47:50;6.80;99.90
2893;DHT22;1456;51.840;12.184;2023-10-19T03:50:17;6.80;99.90
2893;DHT22;1456;51.840;12.184;2023-10-19T03:52:46;6.80;99.90
2893;DHT22;1456;51.840;12.184;2023-10-19T03:55:11;6.80;99.90
2893;DHT22;1456;51.840;12.184;2023-10-19T03:57:40;6.80;99.90
2893;DHT22;1456;51.840;12.184;2023-10-19T04:00:07;6.70;99.90
2893;DHT22;1456;51.840;12.184;2023-10-19T04:02:45;6.70;99.90
2893;DHT22;1456;51.840;12.184;2023-10-19T04:05:12;6.70;99.90
2893;DHT22;1456;51.840;12.184;2023-10-19T04:07:40;6.80;99.90
2893;DHT22;1456;51.840;12.184;2023-10-19T04:10:07;6.70;99.90
2893;DHT22;1456;51.840;12.184;2023-10-19T04:12:36;6.80;99.90
2893;DHT22;1456;51.840;12.184;2023-10-19T04:15:04;6.80;99.90
2893;DHT22;1456;51.840;12.184;2023-10-19T04:17:41;6.70;99.90
2893;DHT22;1456;51.840;12.184;2023-10-19T04:20:17;6.80;99.90
2893;DHT22;1456;51.840;12.184;2023-10-19T04:22:45;6.80;99.90
2893;DHT22;1456;51.840;12.184;2023-10-19T04:25:12;6.80;99.90
2893;DHT22;1456;51.840;12.184;2023-10-19T04:27:54;6.80;99.90
2893;DHT22;1456;51.840;12.184;2023-10-19T04:30:22;6.80;99.90
2893;DHT22;1456;51.840;12.184;2023-10-19T04:32:49;6.80;99.90
2893;DHT22;1456;51.840;12.184;2023-10-19T04:35:15;6.80;99.90
2893;DHT22;1456;51.840;12.184;2023-10-19T04:37:48;6.80;99.90
2893;DHT22;1456;51.840;12.184;2023-10-19T04:40:16;6.70;99.90
2893;DHT22;1456;51.840;12.184;2023-10-19T04:42:41;6.70;99.90
2893;DHT22;1456;51.840;12.184;2023-10-19T04:45:07;6.80;99.90
2893;DHT22;1456;51.840;12.184;2023-10-19T04:47:34;6.80;99.90
2893;DHT22;1456;51.840;12.184;2023-10-19T04:50:01;6.80;99.90
2893;DHT22;1456;51.840;12.184;2023-10-19T04:52:27;6.80;99.90
2893;DHT22;1456;51.840;12.184;2023-10-19T04:54:54;6.80;99.90
2893;DHT22;1456;51.840;12.184;2023-10-19T04:57:19;6.80;99.90
2893;DHT22;1456;51.840;12.184;2023-10-19T04:59:46;6.80;99.90
2893;DHT22;1456;51.840;12.184;2023-10-19T05:02:12;6.70;99.90
2893;DHT22;1456;51.840;12.184;2023-10-19T05:04:38;6.70;99.90
2893;DHT22;1456;51.840;12.184;2023-10-19T05:09:40;6.80;99.90
2893;DHT22;1456;51.840;12.184;2023-10-19T05:14:43;6.80;99.90
2893;DHT22;1456;51.840;12.184;2023-10-19T05:17:09;6.80;99.90
2893;DHT22;1456;51.840;12.184;2023-10-19T05:19:52;6.80;99.90
2893;DHT22;1456;51.840;12.184;2023-10-19T05:22:18;6.80;99.90
2893;DHT22;1456;51.840;12.184;2023-10-19T05:24:44;6.80;99.90
2893;DHT22;1456;51.840;12.184;2023-10-19T05:27:10;6.80;99.90
2893;DHT22;1456;51.840;12.184;2023-10-19T05:29:36;6.80;99.90
2893;DHT22;1456;51.840;12.184;2023-10-19T05:32:09;6.80;99.90
2893;DHT22;1456;51.840;12.184;2023-10-19T05:34:37;6.80;99.90
2893;DHT22;1456;51.840;12.184;2023-10-19T05:37:07;6.80;99.90
2893;DHT22;1456;51.840;12.184;2023-10-19T05:39:42;6.80;99.90
2893;DHT22;1456;51.840;12.184;2023-10-19T05:42:08;6.80;99.90
2893;DHT22;1456;51.840;12.184;2023-10-19T05:44:35;6.80;99.90
2893;DHT22;1456;51.840;12.184;2023-10-19T05:47:01;6.80;99.90
2893;DHT22;1456;51.840;12.184;2023-10-19T05:49:32;6.80;99.90
2893;DHT22;1456;51.840;12.184;2023-10-19T05:51:58;6.70;99.90
2893;DHT22;1456;51.840;12.184;2023-10-19T05:54:25;6.70;99.90
2893;DHT22;1456;51.840;12.184;2023-10-19T05:56:51;6.70;99.90
2893;DHT22;1456;51.840;12.184;2023-10-19T05:59:18;6.70;99.90
2893;DHT22;1456;51.840;12.184;2023-10-19T06:01:43;6.80;99.90
2893;DHT22;1456;51.840;12.184;2023-10-19T06:04:13;6.80;99.90
2893;DHT22;1456;51.840;12.184;2023-10-19T06:06:38;6.80;99.90
2893;DHT22;1456;51.840;12.184;2023-10-19T06:09:07;6.80;99.90
2893;DHT22;1456;51.840;12.184;2023-10-19T06:11:34;6.80;99.90
2893;DHT22;1456;51.840;12.184;2023-10-19T06:14:05;6.80;99.90
2893;DHT22;1456;51.840;12.184;2023-10-19T06:16:35;6.90;99.90
2893;DHT22;1456;51.840;12.184;2023-10-19T06:19:00;6.90;99.90
2893;DHT22;1456;51.840;12.184;2023-10-19T06:21:26;7.00;99.90
2893;DHT22;1456;51.840;12.184;2023-10-19T06:23:51;7.00;99.90
2893;DHT22;1456;51.840;12.184;2023-10-19T06:26:18;7.00;99.90
2893;DHT22;1456;51.840;12.184;2023-10-19T06:28:44;7.00;99.90
2893;DHT22;1456;51.840;12.184;2023-10-19T06:31:10;7.00;99.90
2893;DHT22;1456;51.840;12.184;2023-10-19T06:33:37;7.00;99.90
2893;DHT22;1456;51.840;12.184;2023-10-19T06:36:06;7.00;99.90
2893;DHT22;1456;51.840;12.184;2023-10-19T06:38:32;7.10;99.90
2893;DHT22;1456;51.840;12.184;2023-10-19T06:40:57;7.10;99.90
2893;DHT22;1456;51.840;12.184;2023-10-19T06:43:24;7.10;99.90
2893;DHT22;1456;51.840;12.184;2023-10-19T06:45:54;7.20;99.90
2893;DHT22;1456;51.840;12.184;2023-10-19T06:48:20;7.20;99.90
2893;DHT22;1456;51.840;12.184;2023-10-19T06:50:46;7.10;99.90
2893;DHT22;1456;51.840;12.184;2023-10-19T06:53:11;7.10;99.90
2893;DHT22;1456;51.840;12.184;2023-10-19T06:55:37;7.10;99.90
2893;DHT22;1456;51.840;12.184;2023-10-19T06:58:02;7.10;99.90
2893;DHT22;1456;51.840;12.184;2023-10-19T07:00:30;7.10;99.90
2893;DHT22;1456;51.840;12.184;2023-10-19T07:02:56;7.20;99.90
2893;DHT22;1456;51.840;12.184;2023-10-19T07:05:22;7.10;99.90
2893;DHT22;1456;51.840;12.184;2023-10-19T07:07:52;7.10;99.90
2893;DHT22;1456;51.840;12.184;2023-10-19T07:10:20;7.20;99.90
2893;DHT22;1456;51.840;12.184;2023-10-19T07:12:46;7.20;99.90
2893;DHT22;1456;51.840;12.184;2023-10-19T07:15:12;7.30;99.90
2893;DHT22;1456;51.840;12.184;2023-10-19T07:17:44;7.30;99.90
2893;DHT22;1456;51.840;12.184;2023-10-19T07:20:11;7.40;99.90
2893;DHT22;1456;51.840;12.184;2023-10-19T07:23:04;7.40;99.90
2893;DHT22;1456;51.840;12.184;2023-10-19T07:25:35;7.50;99.90
2893;DHT22;1456;51.840;12.184;2023-10-19T07:28:14;7.50;99.90
2893;DHT22;1456;51.840;12.184;2023-10-19T07:30:44;7.50;99.90
2893;DHT22;1456;51.840;12.184;2023-10-19T07:33:10;7.50;99.90
2893;DHT22;1456;51.840;12.184;2023-10-19T07:35:36;7.60;99.90
2893;DHT22;1456;51.840;12.184;2023-10-19T07:38:07;7.70;99.90
2893;DHT22;1456;51.840;12.184;2023-10-19T07:40:33;7.70;99.90
2893;DHT22;1456;51.840;12.184;2023-10-19T07:42:59;7.80;99.90
2893;DHT22;1456;51.840;12.184;2023-10-19T07:45:24;7.90;99.90
2893;DHT22;1456;51.840;12.184;2023-10-19T07:47:50;8.00;99.90
2893;DHT22;1456;51.840;12.184;2023-10-19T07:50:16;8.00;99.90
2893;DHT22;1456;51.840;12.184;2023-10-19T07:52:42;8.00;99.90
2893;DHT22;1456;51.840;12.184;2023-10-19T07:55:10;8.00;99.90
2893;DHT22;1456;51.840;12.184;2023-10-19T07:57:36;8.00;99.90
2893;DHT22;1456;51.840;12.184;2023-10-19T08:00:02;7.90;99.90
2893;DHT22;1456;51.840;12.184;2023-10-19T08:02:29;7.90;99.90
2893;DHT22;1456;51.840;12.184;2023-10-19T08:04:55;8.00;99.90
2893;DHT22;1456;51.840;12.184;2023-10-19T08:07:21;8.00;99.90
2893;DHT22;1456;51.840;12.184;2023-10-19T08:09:47;8.00;99.90
2893;DHT22;1456;51.840;12.184;2023-10-19T08:12:14;8.00;99.90
2893;DHT22;1456;51.840;12.184;2023-10-19T08:14:40;8.00;99.90
2893;DHT22;1456;51.840;12.184;2023-10-19T08:17:07;8.00;99.90
2893;DHT22;1456;51.840;12.184;2023-10-19T08:19:34;8.00;99.90
2893;DHT22;1456;51.840;12.184;2023-10-19T08:22:00;8.10;99.90
2893;DHT22;1456;51.840;12.184;2023-10-19T08:24:25;8.20;99.90
2893;DHT22;1456;51.840;12.184;2023-10-19T08:26:54;8.10;99.90
2893;DHT22;1456;51.840;12.184;2023-10-19T08:29:20;8.10;99.90
2893;DHT22;1456;51.840;12.184;2023-10-19T08:31:46;8.20;99.90
2893;DHT22;1456;51.840;12.184;2023-10-19T08:34:12;8.30;99.90
2893;DHT22;1456;51.840;12.184;2023-10-19T08:36:39;8.40;99.90
2893;DHT22;1456;51.840;12.184;2023-10-19T08:39:07;8.50;99.90
2893;DHT22;1456;51.840;12.184;2023-10-19T08:41:33;8.60;99.90
2893;DHT22;1456;51.840;12.184;2023-10-19T08:44:03;8.50;99.90
2893;DHT22;1456;51.840;12.184;2023-10-19T08:46:29;8.40;99.90
2893;DHT22;1456;51.840;12.184;2023-10-19T08:48:55;8.50;99.90
2893;DHT22;1456;51.840;12.184;2023-10-19T08:51:23;8.50;99.90
2893;DHT22;1456;51.840;12.184;2023-10-19T08:53:52;8.60;99.90
2893;DHT22;1456;51.840;12.184;2023-10-19T08:56:19;8.70;99.90
2893;DHT22;1456;51.840;12.184;2023-10-19T08:58:45;8.80;99.90
2893;DHT22;1456;51.840;12.184;2023-10-19T09:01:11;8.90;99.90
2893;DHT22;1456;51.840;12.184;2023-10-19T09:03:37;8.90;99.90
2893;DHT22;1456;51.840;12.184;2023-10-19T09:06:05;8.90;99.90
2893;DHT22;1456;51.840;12.184;2023-10-19T09:08:30;9.00;99.90
2893;DHT22;1456;51.840;12.184;2023-10-19T09:11:05;9.00;99.90
2893;DHT22;1456;51.840;12.184;2023-10-19T09:13:42;9.00;99.90
2893;DHT22;1456;51.840;12.184;2023-10-19T09:16:08;9.10;99.90
2893;DHT22;1456;51.840;12.184;2023-10-19T09:18:35;9.10;99.90
2893;DHT22;1456;51.840;12.184;2023-10-19T09:21:00;9.10;99.90
2893;DHT22;1456;51.840;12.184;2023-10-19T09:23:46;9.00;99.90
2893;DHT22;1456;51.840;12.184;2023-10-19T09:26:12;8.90;99.90
2893;DHT22;1456;51.840;12.184;2023-10-19T09:28:38;8.90;99.90
2893;DHT22;1456;51.840;12.184;2023-10-19T09:31:05;8.90;99.90
2893;DHT22;1456;51.840;12.184;2023-10-19T09:33:35;9.00;99.90
2893;DHT22;1456;51.840;12.184;2023-10-19T09:36:02;9.10;99.90
2893;DHT22;1456;51.840;12.184;2023-10-19T09:38:30;9.30;99.90
2893;DHT22;1456;51.840;12.184;2023-10-19T09:40:55;9.30;99.90
2893;DHT22;1456;51.840;12.184;2023-10-19T09:45:52;9.30;99.90
2893;DHT22;1456;51.840;12.184;2023-10-19T09:48:20;9.40;99.90
2893;DHT22;1456;51.840;12.184;2023-10-19T09:51:04;9.60;99.90
2893;DHT22;1456;51.840;12.184;2023-10-19T09:53:31;9.70;99.90
2893;DHT22;1456;51.840;12.184;2023-10-19T09:55:58;9.80;99.90
2893;DHT22;1456;51.840;12.184;2023-10-19T09:58:29;10.00;99.90
2893;DHT22;1456;51.840;12.184;2023-10-19T10:00:57;10.10;99.90
2893;DHT22;1456;51.840;12.184;2023-10-19T10:04:10;10.10;99.90
2893;DHT22;1456;51.840;12.184;2023-10-19T10:06:17;10.30;99.90
2893;DHT22;1456;51.840;12.184;2023-10-19T10:08:51;10.30;99.90
2893;DHT22;1456;51.840;12.184;2023-10-19T10:11:24;10.40;99.90
2893;DHT22;1456;51.840;12.184;2023-10-19T10:13:52;10.20;99.90
2893;DHT22;1456;51.840;12.184;2023-10-19T10:16:18;10.30;99.90
2893;DHT22;1456;51.840;12.184;2023-10-19T10:18:45;10.40;99.90
2893;DHT22;1456;51.840;12.184;2023-10-19T10:21:13;10.50;99.90
2893;DHT22;1456;51.840;12.184;2023-10-19T10:23:44;10.60;99.90
2893;DHT22;1456;51.840;12.184;2023-10-19T10:26:13;10.80;99.90
2893;DHT22;1456;51.840;12.184;2023-10-19T10:28:39;10.90;99.90
2893;DHT22;1456;51.840;12.184;2023-10-19T10:31:21;10.90;99.90
2893;DHT22;1456;51.840;12.184;2023-10-19T10:33:48;11.00;99.90
2893;DHT22;1456;51.840;12.184;2023-10-19T10:36:14;11.10;99.90
2893;DHT22;1456;51.840;12.184;2023-10-19T10:38:41;11.20;99.90
2893;DHT22;1456;51.840;12.184;2023-10-19T10:41:07;11.30;99.90
2893;DHT22;1456;51.840;12.184;2023-10-19T10:43:52;11.40;99.90
2893;DHT22;1456;51.840;12.184;2023-10-19T10:46:22;11.40;99.90
2893;DHT22;1456;51.840;12.184;2023-10-19T10:48:47;11.40;99.90
2893;DHT22;1456;51.840;12.184;2023-10-19T10:53:50;11.30;99.90
2893;DHT22;1456;51.840;12.184;2023-10-19T10:56:17;11.40;99.90
2893;DHT22;1456;51.840;12.184;2023-10-19T10:58:43;11.50;99.90
2893;DHT22;1456;51.840;12.184;2023-10-19T11:01:09;12.00;99.90
2893;DHT22;1456;51.840;12.184;2023-10-19T11:03:36;12.30;99.90
2893;DHT22;1456;51.840;12.184;2023-10-19T11:06:06;12.50;99.90
2893;DHT22;1456;51.840;12.184;2023-10-19T11:08:33;12.60;99.90
2893;DHT22;1456;51.840;12.184;2023-10-19T11:11:07;12.80;99.90
2893;DHT22;1456;51.840;12.184;2023-10-19T11:13:32;12.90;99.90
2893;DHT22;1456;51.840;12.184;2023-10-19T11:16:00;12.80;99.90
2893;DHT22;1456;51.840;12.184;2023-10-19T11:18:33;12.60;99.90
2893;DHT22;1456;51.840;12.184;2023-10-19T11:21:01;12.30;99.90
2893;DHT22;1456;51.840;12.184;2023-10-19T11:26:06;12.00;99.90
2893;DHT22;1456;51.840;12.184;2023-10-19T11:28:32;12.00;99.90
2893;DHT22;1456;51.840;12.184;2023-10-19T11:31:14;12.00;99.90
2893;DHT22;1456;51.840;12.184;2023-10-19T11:33:41;12.00;99.90
2893;DHT22;1456;51.840;12.184;2023-10-19T11:36:07;11.90;99.90
2893;DHT22;1456;51.840;12.184;2023-10-19T11:38:33;11.90;99.90
2893;DHT22;1456;51.840;12.184;2023-10-19T11:40:59;11.90;99.90
2893;DHT22;1456;51.840;12.184;2023-10-19T11:43:24;12.00;99.90
2893;DHT22;1456;51.840;12.184;2023-10-19T11:45:50;12.20;99.90
2893;DHT22;1456;51.840;12.184;2023-10-19T11:48:15;12.40;99.90
2893;DHT22;1456;51.840;12.184;2023-10-19T11:50:41;12.40;99.90
2893;DHT22;1456;51.840;12.184;2023-10-19T11:53:06;12.40;99.90
2893;DHT22;1456;51.840;12.184;2023-10-19T11:55:38;12.40;99.90
2893;DHT22;1456;51.840;12.184;2023-10-19T11:58:07;12.20;99.90
2893;DHT22;1456;51.840;12.184;2023-10-19T12:00:36;12.20;99.90
2893;DHT22;1456;51.840;12.184;2023-10-19T12:03:03;12.30;99.90
2893;DHT22;1456;51.840;12.184;2023-10-19T12:05:29;12.30;99.90
2893;DHT22;1456;51.840;12.184;2023-10-19T12:07:54;12.20;99.90
2893;DHT22;1456;51.840;12.184;2023-10-19T12:10:21;12.20;99.90
2893;DHT22;1456;51.840;12.184;2023-10-19T12:12:53;12.10;99.90
2893;DHT22;1456;51.840;12.184;2023-10-19T12:15:19;12.20;99.90
2893;DHT22;1456;51.840;12.184;2023-10-19T12:17:47;12.20;99.90
2893;DHT22;1456;51.840;12.184;2023-10-19T12:20:15;12.40;99.90
2893;DHT22;1456;51.840;12.184;2023-10-19T12:22:40;12.40;99.90
2893;DHT22;1456;51.840;12.184;2023-10-19T12:25:06;12.40;99.90
2893;DHT22;1456;51.840;12.184;2023-10-19T12:27:32;12.30;99.90
2893;DHT22;1456;51.840;12.184;2023-10-19T12:29:58;12.30;99.90
2893;DHT22;1456;51.840;12.184;2023-10-19T12:32:26;12.30;99.90
2893;DHT22;1456;51.840;12.184;2023-10-19T12:34:52;12.30;99.90
2893;DHT22;1456;51.840;12.184;2023-10-19T12:37:23;12.30;99.90
2893;DHT22;1456;51.840;12.184;2023-10-19T12:39:50;12.30;99.90
2893;DHT22;1456;51.840;12.184;2023-10-19T12:42:17;12.30;99.90
2893;DHT22;1456;51.840;12.184;2023-10-19T12:44:42;12.40;99.90
2893;DHT22;1456;51.840;12.184;2023-10-19T12:47:10;12.60;99.90
2893;DHT22;1456;51.840;12.184;2023-10-19T12:49:38;12.70;99.90
2893;DHT22;1456;51.840;12.184;2023-10-19T12:52:04;12.80;99.90
2893;DHT22;1456;51.840;12.184;2023-10-19T12:54:32;13.00;99.90
2893;DHT22;1456;51.840;12.184;2023-10-19T12:57:00;12.90;99.90
2893;DHT22;1456;51.840;12.184;2023-10-19T12:59:25;12.90;99.90
2893;DHT22;1456;51.840;12.184;2023-10-19T13:01:51;13.20;99.90
2893;DHT22;1456;51.840;12.184;2023-10-19T13:04:20;13.40;99.90
2893;DHT22;1456;51.840;12.184;2023-10-19T13:06:49;13.50;99.90
2893;DHT22;1456;51.840;12.184;2023-10-19T13:09:15;13.50;99.90
2893;DHT22;1456;51.840;12.184;2023-10-19T13:11:50;13.50;99.90
2893;DHT22;1456;51.840;12.184;2023-10-19T13:14:18;13.40;99.90
2893;DHT22;1456;51.840;12.184;2023-10-19T13:16:44;13.40;99.90
2893;DHT22;1456;51.840;12.184;2023-10-19T13:19:09;13.10;99.90
2893;DHT22;1456;51.840;12.184;2023-10-19T13:21:39;13.00;99.90
2893;DHT22;1456;51.840;12.184;2023-10-19T13:24:07;12.90;99.90
2893;DHT22;1456;51.840;12.184;2023-10-19T13:26:33;12.90;99.90
2893;DHT22;1456;51.840;12.184;2023-10-19T13:28:59;12.60;99.90
2893;DHT22;1456;51.840;12.184;2023-10-19T13:31:25;12.40;99.90
2893;DHT22;1456;51.840;12.184;2023-10-19T13:33:52;12.30;99.90
2893;DHT22;1456;51.840;12.184;2023-10-19T13:36:18;12.30;99.90
2893;DHT22;1456;51.840;12.184;2023-10-19T13:38:45;12.40;99.90
2893;DHT22;1456;51.840;12.184;2023-10-19T13:41:11;12.20;99.90
2893;DHT22;1456;51.840;12.184;2023-10-19T13:43:37;12.10;99.90
2893;DHT22;1456;51.840;12.184;2023-10-19T13:46:02;12.10;99.90
2893;DHT22;1456;51.840;12.184;2023-10-19T13:48:30;12.10;99.90
2893;DHT22;1456;51.840;12.184;2023-10-19T13:50:57;11.90;99.90
2893;DHT22;1456;51.840;12.184;2023-10-19T13:53:26;11.90;99.90
2893;DHT22;1456;51.840;12.184;2023-10-19T13:55:52;11.80;99.90
2893;DHT22;1456;51.840;12.184;2023-10-19T13:58:18;11.80;99.90
2893;DHT22;1456;51.840;12.184;2023-10-19T14:00:43;11.70;99.90
2893;DHT22;1456;51.840;12.184;2023-10-19T14:03:13;11.60;99.90
2893;DHT22;1456;51.840;12.184;2023-10-19T14:05:40;11.60;99.90
2893;DHT22;1456;51.840;12.184;2023-10-19T14:08:08;11.60;99.90
2893;DHT22;1456;51.840;12.184;2023-10-19T14:10:34;11.50;99.90
2893;DHT22;1456;51.840;12.184;2023-10-19T14:13:00;11.50;99.90
2893;DHT22;1456;51.840;12.184;2023-10-19T14:15:25;11.50;99.90
2893;DHT22;1456;51.840;12.184;2023-10-19T14:17:54;11.40;99.90
2893;DHT22;1456;51.840;12.184;2023-10-19T14:20:20;11.50;99.90
2893;DHT22;1456;51.840;12.184;2023-10-19T14:22:48;11.50;99.90
2893;DHT22;1456;51.840;12.184;2023-10-19T14:25:14;11.50;99.90
2893;DHT22;1456;51.840;12.184;2023-10-19T14:27:44;11.40;99.90
2893;DHT22;1456;51.840;12.184;2023-10-19T14:30:10;11.30;99.90
2893;DHT22;1456;51.840;12.184;2023-10-19T14:32:48;11.40;99.90
2893;DHT22;1456;51.840;12.184;2023-10-19T14:35:15;11.40;99.90
2893;DHT22;1456;51.840;12.184;2023-10-19T14:37:41;11.30;99.90
2893;DHT22;1456;51.840;12.184;2023-10-19T14:40:10;11.20;99.90
2893;DHT22;1456;51.840;12.184;2023-10-19T14:42:37;11.30;99.90
2893;DHT22;1456;51.840;12.184;2023-10-19T14:45:07;11.20;99.90
2893;DHT22;1456;51.840;12.184;2023-10-19T14:47:35;11.20;99.90
2893;DHT22;1456;51.840;12.184;2023-10-19T14:50:01;11.10;99.90
2893;DHT22;1456;51.840;12.184;2023-10-19T14:52:27;11.00;99.90
2893;DHT22;1456;51.840;12.184;2023-10-19T14:54:52;11.00;99.90
2893;DHT22;1456;51.840;12.184;2023-10-19T14:57:18;11.00;99.90
2893;DHT22;1456;51.840;12.184;2023-10-19T14:59:43;11.10;99.90
2893;DHT22;1456;51.840;12.184;2023-10-19T15:02:10;11.10;99.90
2893;DHT22;1456;51.840;12.184;2023-10-19T15:04:38;11.20;99.90
2893;DHT22;1456;51.840;12.184;2023-10-19T15:07:03;11.20;99.90
2893;DHT22;1456;51.840;12.184;2023-10-19T15:09:29;11.20;99.90
2893;DHT22;1456;51.840;12.184;2023-10-19T15:11:56;11.20;99.90
2893;DHT22;1456;51.840;12.184;2023-10-19T15:14:21;11.20;99.90
2893;DHT22;1456;51.840;12.184;2023-10-19T15:16:47;11.10;99.90
2893;DHT22;1456;51.840;12.184;2023-10-19T15:19:12;11.00;99.90
2893;DHT22;1456;51.840;12.184;2023-10-19T15:21:40;11.00;99.90
2893;DHT22;1456;51.840;12.184;2023-10-19T15:24:07;11.00;99.90
2893;DHT22;1456;51.840;12.184;2023-10-19T15:26:33;11.00;99.90
2893;DHT22;1456;51.840;12.184;2023-10-19T15:28:58;11.00;99.90
2893;DHT22;1456;51.840;12.184;2023-10-19T15:31:24;11.10;99.90
2893;DHT22;1456;51.840;12.184;2023-10-19T15:33:49;11.00;99.90
2893;DHT22;1456;51.840;12.184;2023-10-19T15:36:15;11.00;99.90
2893;DHT22;1456;51.840;12.184;2023-10-19T15:38:41;11.00;99.90
2893;DHT22;1456;51.840;12.184;2023-10-19T15:41:08;11.10;99.90
2893;DHT22;1456;51.840;12.184;2023-10-19T15:43:35;10.90;99.90
2893;DHT22;1456;51.840;12.184;2023-10-19T15:46:00;10.80;99.90
2893;DHT22;1456;51.840;12.184;2023-10-19T15:48:29;10.80;99.90
2893;DHT22;1456;51.840;12.184;2023-10-19T15:50:56;10.70;99.90
2893;DHT22;1456;51.840;12.184;2023-10-19T15:53:22;10.70;99.90
2893;DHT22;1456;51.840;12.184;2023-10-19T15:55:47;10.70;99.90
2893;DHT22;1456;51.840;12.184;2023-10-19T15:58:13;10.60;99.90
2893;DHT22;1456;51.840;12.184;2023-10-19T16:00:39;10.60;99.90
2893;DHT22;1456;51.840;12.184;2023-10-19T16:03:04;10.60;99.90
2893;DHT22;1456;51.840;12.184;2023-10-19T16:05:31;10.50;99.90
2893;DHT22;1456;51.840;12.184;2023-10-19T16:07:56;10.50;99.90
2893;DHT22;1456;51.840;12.184;2023-10-19T16:10:22;10.50;99.90
2893;DHT22;1456;51.840;12.184;2023-10-19T16:12:48;10.50;99.90